Terminal Aerodrome Forecast
Issued by NWS

Home | Current Version | Previous Version | Text Only | Print | Product List | Glossary Off
Versions: 1 2 3 4 5 6 7 8 9 10 11 12 13 14 15 16 17 18 19 20 21 22 23 24 25 26 27 28 29 30 31 32 33 34 35 36 37 38 39 40

000
FTUS43 KPAH 011105 AAD
TAFOWB
TAF AMD
KOWB 011105Z 0111/0206 07008KT 6SM BR VCSH BKN010 OVC045
      TEMPO 0111/0115 4SM -SHRA BR OVC008
     FM011500 04007KT P6SM BKN011 OVC045
     FM011900 02005KT P6SM BKN020 OVC130
      TEMPO 0119/0123 P6SM -DZ OVC021
     FM020200 04005KT P6SM -DZ OVC025=

USA.gov is the U.S. government's official web portal to all federal, state and local government web resources and services.